Terminal Aerodrome Forecast
Issued by NWS Austin/San Antonio, TX

Home | Current Version | Previous Version | Text Only | Print | Product List | Glossary On
Versions: 1 2 3 4 5 6 7 8 9 10 11 12 13 14 15 16 17 18 19 20 21 22 23 24 25 26
000
FTUS44 KEWX 012000 AAA
TAFAUS
TAF AMD
KAUS 012022Z 0120/0224 36010KT 5SM BR OVC006
      TEMPO 0121/0123 2SM -DZ BR OVC005
     FM020300 01009KT 2SM -DZ BR OVC004
     FM021800 01009KT 3SM BR OVC006=

USA.gov is the U.S. government's official web portal to all federal, state and local government web resources and services.